createdAt,value
2022-07-30T00:01:34.398Z,100577.06
2022-07-30T00:04:03.393Z,100572.06
2022-07-30T00:06:30.332Z,100571.41
2022-07-30T00:08:57.159Z,100577.88
2022-07-30T00:11:27.651Z,100571.75
2022-07-30T00:13:55.397Z,100571.75
2022-07-30T00:16:22.457Z,100569.81
2022-07-30T00:18:49.359Z,100571.75
2022-07-30T00:21:36.363Z,100571.91
2022-07-30T00:24:04.663Z,100572.72
2022-07-30T00:26:31.784Z,100566.41
2022-07-30T00:28:58.469Z,100562.41
2022-07-30T00:31:25.247Z,100556.78
2022-07-30T00:33:52.110Z,100564.06
2022-07-30T00:36:18.884Z,100556.81
2022-07-30T00:38:45.943Z,100548.72
2022-07-30T00:41:12.981Z,100545.19
2022-07-30T00:43:44.311Z,100545.84
2022-07-30T00:46:11.086Z,100541.47
2022-07-30T00:48:38.155Z,100547.72
2022-07-30T00:51:05.115Z,100539.84
2022-07-30T00:53:32.257Z,100542.09
2022-07-30T00:55:59.000Z,100541.91
2022-07-30T00:58:26.251Z,100537.28
2022-07-30T01:00:55.627Z,100537.91
2022-07-30T01:03:22.483Z,100531.44
2022-07-30T01:05:50.105Z,100525.63
2022-07-30T01:08:16.936Z,100528.56
2022-07-30T01:10:44.668Z,100535.34
2022-07-30T01:13:11.721Z,100530.34
2022-07-30T01:15:38.678Z,100526.63
2022-07-30T01:18:10.245Z,100528.56
2022-07-30T01:20:50.384Z,100532.59
2022-07-30T01:23:38.400Z,100531.31
2022-07-30T01:26:16.639Z,100528.56
2022-07-30T01:28:48.646Z,100516.31
2022-07-30T01:31:16.925Z,100529.56
2022-07-30T01:33:47.528Z,100528.75
2022-07-30T01:36:16.443Z,100524.88
2022-07-30T01:38:45.127Z,100525.53
2022-07-30T01:41:15.240Z,100526.69
2022-07-30T01:43:45.349Z,100529.09
2022-07-30T01:46:14.861Z,100533.78
2022-07-30T01:48:45.447Z,100536.03
2022-07-30T01:51:13.725Z,100537.31
2022-07-30T01:53:46.014Z,100534.22
2022-07-30T01:56:16.785Z,100548.75
2022-07-30T01:58:47.655Z,100541.00
2022-07-30T02:01:20.152Z,100555.56
2022-07-30T02:03:47.375Z,100551.34
2022-07-30T02:06:20.884Z,100558.31
2022-07-30T02:08:54.666Z,100556.69
2022-07-30T02:11:42.465Z,100566.47
2022-07-30T02:14:21.832Z,100571.34
2022-07-30T02:16:54.242Z,100566.66
2022-07-30T02:19:24.869Z,100572.31
2022-07-30T02:22:08.612Z,100567.00
2022-07-30T02:24:38.744Z,100578.25
2022-07-30T02:27:35.836Z,100576.97
2022-07-30T02:30:06.041Z,100569.09
2022-07-30T02:32:38.680Z,100575.69
2022-07-30T02:35:15.674Z,100581.47
2022-07-30T02:37:44.574Z,100576.66
2022-07-30T02:40:18.009Z,100585.03
2022-07-30T02:42:49.176Z,100586.97
2022-07-30T02:45:20.938Z,100583.41
2022-07-30T02:47:51.866Z,100572.31
2022-07-30T02:50:20.242Z,100585.03
2022-07-30T02:52:49.697Z,100582.13
2022-07-30T02:55:18.692Z,100592.63
2022-07-30T02:57:47.252Z,100597.25
2022-07-30T03:00:14.571Z,100599.22
2022-07-30T03:02:43.787Z,100591.47
2022-07-30T03:05:13.620Z,100595.84
2022-07-30T03:07:41.179Z,100599.06
2022-07-30T03:10:08.607Z,100598.38
2022-07-30T03:12:37.321Z,100604.72
2022-07-30T03:15:04.466Z,100589.84
2022-07-30T03:17:37.434Z,100601.75
2022-07-30T03:20:08.511Z,100594.13
2022-07-30T03:22:41.573Z,100598.47
2022-07-30T03:25:09.821Z,100605.28
2022-07-30T03:27:39.169Z,100601.09
2022-07-30T03:30:07.339Z,100607.88
2022-07-30T03:32:36.030Z,100605.13
2022-07-30T03:35:06.643Z,100608.81
2022-07-30T03:37:38.079Z,100612.84
2022-07-30T03:40:07.445Z,100616.84
2022-07-30T03:42:35.500Z,100614.13
2022-07-30T03:45:06.459Z,100620.88
2022-07-30T03:47:37.540Z,100615.25
2022-07-30T03:50:05.401Z,100618.31
2022-07-30T03:52:37.302Z,100626.75
2022-07-30T03:55:10.798Z,100627.66
2022-07-30T03:57:49.421Z,100628.53
2022-07-30T04:00:18.451Z,100627.22
2022-07-30T04:02:51.623Z,100633.00
2022-07-30T04:05:18.326Z,100637.25
2022-07-30T04:07:47.136Z,100637.63
2022-07-30T04:10:16.666Z,100634.59
2022-07-30T04:12:58.526Z,100629.13
2022-07-30T04:16:37.389Z,100636.38
2022-07-30T04:18:15.573Z,100629.84
2022-07-30T04:20:44.729Z,100639.75
2022-07-30T04:23:12.431Z,100635.28
2022-07-30T04:25:43.578Z,100643.34
2022-07-30T04:28:11.862Z,100640.25
2022-07-30T04:30:39.159Z,100648.03
2022-07-30T04:33:06.359Z,100654.97
2022-07-30T04:35:52.344Z,100648.75
2022-07-30T04:38:34.469Z,100655.63
2022-07-30T04:41:01.564Z,100658.38
2022-07-30T04:43:33.385Z,100671.25
2022-07-30T04:46:00.152Z,100665.78
2022-07-30T04:48:28.352Z,100671.56
2022-07-30T04:51:12.756Z,100676.69
2022-07-30T04:53:42.582Z,100678.41
2022-07-30T04:56:13.793Z,100683.63
2022-07-30T04:58:41.486Z,100684.75
2022-07-30T05:01:10.491Z,100682.75
2022-07-30T05:03:40.219Z,100679.03
2022-07-30T05:06:08.870Z,100686.38
2022-07-30T05:08:39.748Z,100680.50
2022-07-30T05:11:13.566Z,100682.25
2022-07-30T05:13:42.669Z,100679.84
2022-07-30T05:16:14.335Z,100683.13
2022-07-30T05:18:41.341Z,100691.06
2022-07-30T05:21:08.372Z,100693.06
2022-07-30T05:23:50.062Z,100694.44
2022-07-30T05:26:41.609Z,100700.41
2022-07-30T05:29:19.410Z,100697.03
2022-07-30T05:31:51.264Z,100696.63
2022-07-30T05:34:19.303Z,100703.53
2022-07-30T05:36:46.304Z,100695.97
2022-07-30T05:39:16.794Z,100701.03
2022-07-30T05:41:52.889Z,100696.63
2022-07-30T05:44:28.206Z,100696.44
2022-07-30T05:46:55.258Z,100705.72
2022-07-30T05:49:23.172Z,100696.16
2022-07-30T05:51:50.625Z,100702.63
2022-07-30T05:54:18.079Z,100705.22
2022-07-30T05:57:03.738Z,100701.53
2022-07-30T05:59:37.415Z,100703.34
2022-07-30T06:02:12.772Z,100707.59
2022-07-30T06:04:57.838Z,100708.91
2022-07-30T06:07:25.107Z,100711.66
2022-07-30T06:09:54.140Z,100706.84
2022-07-30T06:12:20.999Z,100707.06
2022-07-30T06:14:48.338Z,100704.00
2022-07-30T06:17:22.265Z,100718.50
2022-07-30T06:20:13.214Z,100714.66
2022-07-30T06:22:57.751Z,100718.03
2022-07-30T06:25:33.608Z,100725.78
2022-07-30T06:28:15.420Z,100717.56
2022-07-30T06:30:48.743Z,100713.69
2022-07-30T06:33:16.422Z,100711.75
2022-07-30T06:35:43.180Z,100723.88
2022-07-30T06:38:12.434Z,100718.06
2022-07-30T06:40:52.282Z,100723.06
2022-07-30T06:43:34.399Z,100725.50
2022-07-30T06:46:21.092Z,100724.50
2022-07-30T06:48:50.347Z,100732.22
2022-07-30T06:51:17.163Z,100735.41
2022-07-30T06:53:45.756Z,100731.44
2022-07-30T06:56:13.710Z,100734.97
2022-07-30T06:58:47.944Z,100741.28
2022-07-30T07:01:29.846Z,100734.16
2022-07-30T07:03:57.650Z,100742.41
2022-07-30T07:06:24.545Z,100741.47
2022-07-30T07:08:51.265Z,100737.88
2022-07-30T07:11:24.630Z,100736.38
2022-07-30T07:13:54.670Z,100741.94
2022-07-30T07:16:28.977Z,100745.66
2022-07-30T07:18:56.717Z,100746.09
2022-07-30T07:21:23.664Z,100747.84
2022-07-30T07:23:52.845Z,100752.31
2022-07-30T07:26:39.978Z,100748.47
2022-07-30T07:29:08.692Z,100742.34
2022-07-30T07:32:06.111Z,100748.34
2022-07-30T07:34:22.915Z,100753.00
2022-07-30T07:36:49.817Z,100752.38
2022-07-30T07:39:16.838Z,100742.44
2022-07-30T07:41:49.040Z,100753.97
2022-07-30T07:44:19.701Z,100750.16
2022-07-30T07:46:46.493Z,100756.41
2022-07-30T07:49:13.390Z,100746.59
2022-07-30T07:51:47.323Z,100749.81
2022-07-30T07:54:22.520Z,100744.38
2022-07-30T07:56:56.799Z,100749.50
2022-07-30T07:59:40.686Z,100744.94
2022-07-30T08:02:19.677Z,100747.59
2022-07-30T08:05:00.522Z,100752.75
2022-07-30T08:07:49.524Z,100753.13
2022-07-30T08:10:36.272Z,100749.06
2022-07-30T08:13:52.165Z,100752.16
2022-07-30T08:16:27.100Z,100755.81
2022-07-30T08:19:12.649Z,100747.50
2022-07-30T08:21:43.896Z,100748.88
2022-07-30T08:24:10.584Z,100749.28
2022-07-30T08:26:37.374Z,100748.75
2022-07-30T08:29:04.755Z,100746.41
2022-07-30T08:31:33.297Z,100744.34
2022-07-30T08:34:00.131Z,100740.88
2022-07-30T08:36:27.945Z,100742.34
2022-07-30T08:38:54.686Z,100737.50
2022-07-30T08:41:22.480Z,100744.34
2022-07-30T08:43:51.095Z,100737.34
2022-07-30T08:46:24.874Z,100735.28
2022-07-30T08:48:58.367Z,100738.66
2022-07-30T08:51:25.424Z,100740.75
2022-07-30T08:54:11.125Z,100735.25
2022-07-30T08:56:39.314Z,100734.78
2022-07-30T08:59:07.759Z,100741.34
2022-07-30T09:01:34.477Z,100731.16
2022-07-30T09:04:01.523Z,100735.38
2022-07-30T09:06:29.401Z,100737.50
2022-07-30T09:08:57.657Z,100736.66
2022-07-30T09:11:25.390Z,100741.41
2022-07-30T09:13:52.931Z,100735.03
2022-07-30T09:16:24.248Z,100740.47
2022-07-30T09:18:54.535Z,100742.94
2022-07-30T09:21:24.508Z,100736.75
2022-07-30T09:24:12.711Z,100736.91
2022-07-30T09:27:11.500Z,100730.09
2022-07-30T09:29:59.751Z,100735.03
2022-07-30T09:32:53.316Z,100734.53
2022-07-30T09:35:41.825Z,100736.16
2022-07-30T09:38:12.406Z,100736.59
2022-07-30T09:41:00.182Z,100730.22
2022-07-30T09:43:51.440Z,100736.09
2022-07-30T09:46:47.081Z,100725.28
2022-07-30T09:49:31.692Z,100723.16
2022-07-30T09:51:59.035Z,100735.81
2022-07-30T09:54:51.103Z,100721.00
2022-07-30T09:57:25.972Z,100716.09
2022-07-30T10:00:00.030Z,100727.38
2022-07-30T10:02:33.912Z,100723.78
2022-07-30T10:05:15.434Z,100724.13
2022-07-30T10:07:54.564Z,100720.72
2022-07-30T10:10:25.800Z,100717.19
2022-07-30T10:12:59.480Z,100719.94
2022-07-30T10:15:32.456Z,100716.53
2022-07-30T10:18:01.181Z,100726.84
2022-07-30T10:20:48.117Z,100719.09
2022-07-30T10:23:29.864Z,100714.56
2022-07-30T10:26:18.364Z,100715.88
2022-07-30T10:28:46.148Z,100711.34
2022-07-30T10:31:46.904Z,100712.28
2022-07-30T10:34:02.593Z,100702.84
2022-07-30T10:36:30.574Z,100701.97
2022-07-30T10:38:57.597Z,100699.53
2022-07-30T10:41:42.783Z,100698.13
2022-07-30T10:44:45.861Z,100695.81
2022-07-30T10:47:16.332Z,100697.47
2022-07-30T10:50:10.561Z,100693.38
2022-07-30T10:53:02.900Z,100697.09
2022-07-30T10:55:38.810Z,100696.28
2022-07-30T10:58:08.012Z,100689.88
2022-07-30T11:00:55.977Z,100702.84
2022-07-30T11:03:41.535Z,100696.28
2022-07-30T11:06:15.531Z,100691.56
2022-07-30T11:08:45.255Z,100690.78
2022-07-30T11:12:01.776Z,100695.50
2022-07-30T11:14:08.164Z,100687.91
2022-07-30T11:16:34.771Z,100688.13
2022-07-30T11:19:54.939Z,100686.75
2022-07-30T11:22:25.117Z,100688.81
2022-07-30T11:24:52.700Z,100684.00
2022-07-30T11:27:45.849Z,100686.50
2022-07-30T11:30:23.402Z,100685.34
2022-07-30T11:33:18.660Z,100679.84
2022-07-30T11:36:05.386Z,100670.03
2022-07-30T11:38:52.515Z,100674.41
2022-07-30T11:41:19.580Z,100661.53
2022-07-30T11:43:46.312Z,100665.22
2022-07-30T11:46:29.034Z,100671.31
2022-07-30T11:49:04.074Z,100660.97
2022-07-30T11:51:45.319Z,100658.75
2022-07-30T11:54:12.718Z,100667.22
2022-07-30T11:56:54.099Z,100666.78
2022-07-30T11:59:21.131Z,100657.03
2022-07-30T12:02:00.426Z,100659.94
2022-07-30T12:04:27.801Z,100653.47
2022-07-30T12:06:54.676Z,100658.28
2022-07-30T12:09:24.375Z,100664.41
2022-07-30T12:11:55.491Z,100655.69
2022-07-30T12:14:23.150Z,100659.06
2022-07-30T12:16:54.177Z,100651.31
2022-07-30T12:19:21.144Z,100655.69
2022-07-30T12:21:52.593Z,100651.41
2022-07-30T12:24:26.319Z,100639.22
2022-07-30T12:27:03.561Z,100640.28
2022-07-30T12:29:32.316Z,100633.38
2022-07-30T12:31:59.261Z,100637.34
2022-07-30T12:34:26.811Z,100641.47
2022-07-30T12:36:54.437Z,100633.28
2022-07-30T12:39:24.165Z,100634.81
2022-07-30T12:41:53.150Z,100627.56
2022-07-30T12:44:40.300Z,100632.78
2022-07-30T12:47:28.002Z,100626.16
2022-07-30T12:49:57.153Z,100626.66
2022-07-30T12:52:30.926Z,100620.38
2022-07-30T12:55:10.333Z,100617.53
2022-07-30T12:58:08.746Z,100625.38
2022-07-30T13:00:53.099Z,100623.50
2022-07-30T13:03:28.609Z,100619.25
2022-07-30T13:05:57.027Z,100614.75
2022-07-30T13:09:03.043Z,100609.06
2022-07-30T13:11:41.747Z,100608.19
2022-07-30T13:14:16.946Z,100602.69
2022-07-30T13:16:43.889Z,100604.19
2022-07-30T13:19:11.801Z,100593.84
2022-07-30T13:21:39.950Z,100602.69
2022-07-30T13:24:18.153Z,100605.69
2022-07-30T13:26:45.700Z,100592.97
2022-07-30T13:29:13.532Z,100598.34
2022-07-30T13:31:43.039Z,100595.72
2022-07-30T13:34:11.901Z,100598.31
2022-07-30T13:36:38.971Z,100591.06
2022-07-30T13:39:05.741Z,100593.81
2022-07-30T13:41:33.266Z,100592.50
2022-07-30T13:44:00.054Z,100586.34
2022-07-30T13:46:26.912Z,100589.31
2022-07-30T13:48:53.983Z,100586.84
2022-07-30T13:51:20.916Z,100592.66
2022-07-30T13:53:47.774Z,100577.19
2022-07-30T13:56:14.441Z,100586.91
2022-07-30T13:58:42.891Z,100585.22
2022-07-30T14:01:17.368Z,100584.97
2022-07-30T14:03:50.188Z,100582.47
2022-07-30T14:06:18.640Z,100578.38
2022-07-30T14:08:45.734Z,100570.13
2022-07-30T14:11:12.473Z,100566.25
2022-07-30T14:13:39.193Z,100568.47
2022-07-30T14:16:22.595Z,100574.22
2022-07-30T14:18:53.147Z,100570.28
2022-07-30T14:21:19.861Z,100560.03
2022-07-30T14:23:46.549Z,100575.38
2022-07-30T14:26:13.986Z,100562.81
2022-07-30T14:28:40.806Z,100559.31
2022-07-30T14:31:07.618Z,100558.59
2022-07-30T14:33:41.367Z,100566.13
2022-07-30T14:36:08.131Z,100549.09
2022-07-30T14:38:34.863Z,100560.69
2022-07-30T14:41:01.779Z,100566.00
2022-07-30T14:43:28.491Z,100559.16
2022-07-30T14:45:55.210Z,100562.97
2022-07-30T14:48:21.827Z,100562.47
2022-07-30T14:51:13.045Z,100558.53
2022-07-30T14:53:35.744Z,100562.63
2022-07-30T14:56:02.454Z,100559.47
2022-07-30T14:58:29.371Z,100561.09
2022-07-30T15:00:56.038Z,100564.69
2022-07-30T15:03:23.191Z,100568.44
2022-07-30T15:05:53.282Z,100569.91
2022-07-30T15:08:20.938Z,100565.69
2022-07-30T15:10:47.727Z,100564.00
2022-07-30T15:13:14.808Z,100568.25
2022-07-30T15:15:45.209Z,100568.78
2022-07-30T15:18:13.250Z,100564.78
2022-07-30T15:20:39.966Z,100551.47
2022-07-30T15:23:10.423Z,100558.50
2022-07-30T15:25:40.789Z,100564.44
2022-07-30T15:28:07.588Z,100565.59
2022-07-30T15:30:34.296Z,100566.69
2022-07-30T15:33:01.111Z,100571.38
2022-07-30T15:35:29.110Z,100563.47
2022-07-30T15:37:55.897Z,100564.06
2022-07-30T15:40:22.729Z,100559.13
2022-07-30T15:42:49.425Z,100567.97
2022-07-30T15:45:18.292Z,100563.13
2022-07-30T15:47:45.260Z,100557.06
2022-07-30T15:50:12.238Z,100555.19
2022-07-30T15:52:39.389Z,100553.13
2022-07-30T15:55:06.741Z,100561.16
2022-07-30T15:57:33.536Z,100556.09
2022-07-30T16:00:00.435Z,100550.94
2022-07-30T16:02:27.394Z,100556.16
2022-07-30T16:04:54.377Z,100550.66
2022-07-30T16:07:21.157Z,100558.00
2022-07-30T16:09:47.898Z,100561.81
2022-07-30T16:12:14.609Z,100567.72
2022-07-30T16:14:41.307Z,100554.66
2022-07-30T16:17:13.624Z,100558.91
2022-07-30T16:19:41.317Z,100562.16
2022-07-30T16:22:15.786Z,100552.59
2022-07-30T16:24:49.004Z,100554.78
2022-07-30T16:27:17.148Z,100558.22
2022-07-30T16:29:43.796Z,100548.06
2022-07-30T16:32:10.759Z,100555.38
2022-07-30T16:34:37.528Z,100551.13
2022-07-30T16:37:04.575Z,100554.50
2022-07-30T16:39:31.752Z,100551.72
2022-07-30T16:41:58.468Z,100552.91
2022-07-30T16:44:27.058Z,100552.53
2022-07-30T16:46:53.777Z,100551.19
2022-07-30T16:49:20.590Z,100556.38
2022-07-30T16:51:47.433Z,100555.28
2022-07-30T16:54:14.371Z,100558.00
2022-07-30T16:56:41.054Z,100551.28
2022-07-30T16:59:13.220Z,100551.34
2022-07-30T17:01:40.326Z,100551.88
2022-07-30T17:04:07.059Z,100551.28
2022-07-30T17:06:35.537Z,100555.88
2022-07-30T17:09:02.352Z,100563.28
2022-07-30T17:11:47.160Z,100558.31
2022-07-30T17:14:16.009Z,100551.53
2022-07-30T17:16:42.718Z,100561.38
2022-07-30T17:19:09.881Z,100558.13
2022-07-30T17:21:38.076Z,100560.44
2022-07-30T17:24:10.963Z,100558.50
2022-07-30T17:26:40.388Z,100559.59
2022-07-30T17:29:10.764Z,100564.88
2022-07-30T17:31:43.181Z,100563.38
2022-07-30T17:34:13.549Z,100566.84
2022-07-30T17:36:44.381Z,100573.47
2022-07-30T17:40:19.600Z,100582.88
2022-07-30T17:42:08.913Z,100580.81
2022-07-30T17:44:36.006Z,100576.88
2022-07-30T17:47:03.259Z,100582.31
2022-07-30T17:49:30.263Z,100582.31
2022-07-30T17:51:57.225Z,100585.09
2022-07-30T17:54:24.935Z,100580.09
2022-07-30T17:56:52.814Z,100590.91
2022-07-30T17:59:19.515Z,100588.13
2022-07-30T18:01:46.269Z,100591.81
2022-07-30T18:04:13.055Z,100587.44
2022-07-30T18:06:40.157Z,100595.72
2022-07-30T18:09:06.865Z,100602.94
2022-07-30T18:11:33.570Z,100607.88
2022-07-30T18:14:00.365Z,100603.81
2022-07-30T18:16:27.110Z,100609.00
2022-07-30T18:18:53.949Z,100609.91
2022-07-30T18:21:20.803Z,100613.09
2022-07-30T18:23:47.563Z,100609.91
2022-07-30T18:26:15.348Z,100617.72
2022-07-30T18:28:42.306Z,100620.25
2022-07-30T18:31:09.214Z,100623.38
2022-07-30T18:33:36.156Z,100624.50
2022-07-30T18:36:03.011Z,100621.16
2022-07-30T18:38:29.808Z,100626.75
2022-07-30T18:41:00.535Z,100625.50
2022-07-30T18:43:28.277Z,100628.16
2022-07-30T18:45:55.879Z,100630.56
2022-07-30T18:48:23.404Z,100632.44
2022-07-30T18:50:50.852Z,100638.91
2022-07-30T18:53:17.653Z,100646.94
2022-07-30T18:55:44.687Z,100645.44
2022-07-30T18:58:11.990Z,100651.66
2022-07-30T19:00:42.625Z,100646.88
2022-07-30T19:03:16.296Z,100648.66
2022-07-30T19:05:45.571Z,100653.00
2022-07-30T19:08:12.333Z,100657.38
2022-07-30T19:10:39.927Z,100652.78
2022-07-30T19:13:06.725Z,100653.03
2022-07-30T19:15:33.538Z,100663.97
2022-07-30T19:18:00.207Z,100662.66
2022-07-30T19:20:27.633Z,100664.75
2022-07-30T19:23:06.729Z,100663.63
2022-07-30T19:25:34.346Z,100668.31
2022-07-30T19:28:03.765Z,100675.00
2022-07-30T19:30:31.728Z,100674.31
2022-07-30T19:33:14.718Z,100685.34
2022-07-30T19:35:43.327Z,100682.59
2022-07-30T19:38:11.960Z,100687.88
2022-07-30T19:40:48.227Z,100692.13
2022-07-30T19:43:16.425Z,100703.16
2022-07-30T19:45:47.308Z,100697.88
2022-07-30T19:48:28.386Z,100702.72
2022-07-30T19:50:55.902Z,100706.72
2022-07-30T19:53:22.571Z,100712.72
2022-07-30T19:55:50.911Z,100722.47
2022-07-30T19:58:17.864Z,100724.09
2022-07-30T20:00:49.408Z,100728.69
2022-07-30T20:03:19.047Z,100735.25
2022-07-30T20:05:57.222Z,100735.25
2022-07-30T20:08:27.391Z,100736.06
2022-07-30T20:10:57.700Z,100734.56
2022-07-30T20:13:45.001Z,100731.56
2022-07-30T20:16:17.076Z,100738.59
2022-07-30T20:18:47.286Z,100733.19
2022-07-30T20:21:16.349Z,100731.47
2022-07-30T20:23:44.624Z,100725.63
2022-07-30T20:26:14.271Z,100735.72
2022-07-30T20:28:52.405Z,100731.59
2022-07-30T20:31:20.117Z,100738.00
2022-07-30T20:33:50.182Z,100738.69
2022-07-30T20:36:18.533Z,100742.00
2022-07-30T20:38:47.017Z,100739.22
2022-07-30T20:41:14.642Z,100738.19
2022-07-30T20:43:52.100Z,100736.31
2022-07-30T20:46:23.265Z,100740.47
2022-07-30T20:48:52.141Z,100745.75
2022-07-30T20:51:19.469Z,100747.16
2022-07-30T20:53:47.049Z,100744.03
2022-07-30T20:56:16.153Z,100750.44
2022-07-30T20:58:47.454Z,100749.06
2022-07-30T21:01:17.623Z,100749.28
2022-07-30T21:03:47.807Z,100753.31
2022-07-30T21:06:15.131Z,100748.00
2022-07-30T21:08:41.886Z,100746.50
2022-07-30T21:11:09.753Z,100746.06
2022-07-30T21:13:36.933Z,100744.91
2022-07-30T21:16:04.406Z,100753.41
2022-07-30T21:18:49.704Z,100749.72
2022-07-30T21:21:30.484Z,100743.63
2022-07-30T21:24:11.864Z,100751.53
2022-07-30T21:26:40.421Z,100749.25
2022-07-30T21:29:08.096Z,100751.66
2022-07-30T21:31:35.005Z,100752.94
2022-07-30T21:34:26.466Z,100757.03
2022-07-30T21:36:54.315Z,100755.19
2022-07-30T21:39:28.774Z,100752.97
2022-07-30T21:41:57.286Z,100758.22
2022-07-30T21:44:24.306Z,100746.41
2022-07-30T21:46:52.529Z,100755.25
2022-07-30T21:49:20.403Z,100757.81
2022-07-30T21:51:47.101Z,100764.66
2022-07-30T21:54:17.107Z,100760.03
2022-07-30T21:56:56.357Z,100764.38
2022-07-30T21:59:25.102Z,100763.59
2022-07-30T22:01:59.678Z,100761.44
2022-07-30T22:04:27.303Z,100766.28
2022-07-30T22:06:54.527Z,100771.66
2022-07-30T22:09:33.142Z,100766.34
2022-07-30T22:12:09.745Z,100768.75
2022-07-30T22:14:39.566Z,100774.91
2022-07-30T22:17:06.378Z,100773.00
2022-07-30T22:19:49.983Z,100776.94
2022-07-30T22:22:26.203Z,100771.03
2022-07-30T22:24:57.227Z,100777.03
2022-07-30T22:27:25.350Z,100779.31
2022-07-30T22:29:55.662Z,100785.47
2022-07-30T22:32:23.818Z,100785.69
2022-07-30T22:34:51.525Z,100774.78
2022-07-30T22:37:21.519Z,100784.00
2022-07-30T22:39:50.935Z,100783.66
2022-07-30T22:42:24.587Z,100782.25
2022-07-30T22:44:54.771Z,100776.06
2022-07-30T22:47:51.550Z,100777.66
2022-07-30T22:50:10.807Z,100767.78
2022-07-30T22:52:54.971Z,100768.69
2022-07-30T22:55:26.125Z,100768.81
2022-07-30T22:57:53.696Z,100771.09
2022-07-30T23:00:27.999Z,100772.78
2022-07-30T23:02:56.527Z,100775.53
2022-07-30T23:05:23.810Z,100770.19
2022-07-30T23:07:50.925Z,100776.06
2022-07-30T23:10:20.343Z,100776.50
2022-07-30T23:12:53.686Z,100774.88
2022-07-30T23:15:21.501Z,100776.16
2022-07-30T23:17:48.298Z,100776.88
2022-07-30T23:20:20.174Z,100777.19
2022-07-30T23:22:47.326Z,100774.19
2022-07-30T23:25:14.493Z,100766.13
2022-07-30T23:27:41.762Z,100764.50
2022-07-30T23:30:10.860Z,100764.50
2022-07-30T23:32:38.087Z,100762.56
2022-07-30T23:35:06.389Z,100762.38
2022-07-30T23:37:37.882Z,100767.22
2022-07-30T23:40:14.726Z,100767.06
2022-07-30T23:42:41.452Z,100767.31
2022-07-30T23:45:08.442Z,100763.31
2022-07-30T23:47:51.168Z,100767.06
2022-07-30T23:50:22.101Z,100769.47
2022-07-30T23:52:48.823Z,100761.22
2022-07-30T23:55:16.067Z,100759.94
2022-07-30T23:57:43.568Z,100771.63
